Time;durP1;ratioP1;P1;durP2;ratioP2;P2;SDS_P1;SDS_P2;PMS_P1;PMS_P2;Temp;Humidity;BMP_temperature;BMP_pressure;BME280_temperature;BME280_humidity;BME280_pressure;Samples;Min_cycle;Max_cycle;Signal;HPM_P1;HPM_P2
2023/05/03 00:01:44;;;;;;;8.13;5.32;;;;;;;;;;4906031;29;20191;-56
2023/05/03 00:04:10;;;;;;;7.75;5.35;;;;;;;;;;4902972;29;20107;-58
2023/05/03 00:06:35;;;;;;;8.10;5.10;;;;;;;;;;4889007;29;20099;-58
2023/05/03 00:09:01;;;;;;;8.32;5.15;;;;;;;;;;4884137;29;20036;-59
2023/05/03 00:11:26;;;;;;;10.18;5.47;;;;;;;;;;4903717;29;21052;-57
2023/05/03 00:13:52;;;;;;;9.82;5.35;;;;;;;;;;4900073;29;20497;-60
2023/05/03 00:16:17;;;;;;;11.82;6.30;;;;;;;;;;4905013;29;20067;-59
2023/05/03 00:18:43;;;;;;;10.40;5.88;;;;;;;;;;4903161;29;20123;-57
2023/05/03 00:21:08;;;;;;;10.90;6.03;;;;;;;;;;4901427;29;20060;-55
2023/05/03 00:23:33;;;;;;;12.30;6.30;;;;;;;;;;4901955;29;20384;-58
2023/05/03 00:25:59;;;;;;;10.38;6.28;;;;;;;;;;4905533;29;20032;-57
2023/05/03 00:28:24;;;;;;;11.35;6.25;;;;;;;;;;4896068;29;20092;-55
2023/05/03 00:30:50;;;;;;;7.53;5.28;;;;;;;;;;4900909;29;20036;-57
2023/05/03 00:33:16;;;;;;;10.40;6.68;;;;;;;;;;4889688;29;20062;-57
2023/05/03 00:35:42;;;;;;;9.60;6.00;;;;;;;;;;4903670;29;20020;-59
2023/05/03 00:38:07;;;;;;;9.00;6.28;;;;;;;;;;4899706;29;20041;-58
2023/05/03 00:40:32;;;;;;;10.18;6.38;;;;;;;;;;4902506;29;20159;-56
2023/05/03 00:42:58;;;;;;;11.00;6.50;;;;;;;;;;4889273;29;20999;-59
2023/05/03 00:45:23;;;;;;;13.98;6.80;;;;;;;;;;4902670;29;20028;-56
2023/05/03 00:47:48;;;;;;;9.45;6.13;;;;;;;;;;4883414;29;20040;-58
2023/05/03 00:50:14;;;;;;;12.73;6.15;;;;;;;;;;4887100;29;20036;-55
2023/05/03 00:52:40;;;;;;;12.52;6.53;;;;;;;;;;4900873;29;20057;-57
2023/05/03 00:55:07;;;;;;;9.93;6.53;;;;;;;;;;4902735;29;20035;-59
2023/05/03 00:57:32;;;;;;;13.07;7.25;;;;;;;;;;4900886;29;20037;-57
2023/05/03 00:59:58;;;;;;;18.27;7.30;;;;;;;;;;4870431;29;20107;-54
2023/05/03 01:02:23;;;;;;;10.70;6.68;;;;;;;;;;4882264;29;20032;-57
2023/05/03 01:04:50;;;;;;;10.82;6.65;;;;;;;;;;4892113;29;20032;-57
2023/05/03 01:07:34;;;;;;;11.57;7.70;;;;;;;;;;4889033;29;20561;-57
2023/05/03 01:10:03;;;;;;;13.00;8.43;;;;;;;;;;4901606;29;20055;-58
2023/05/03 01:12:28;;;;;;;13.30;8.43;;;;;;;;;;4898670;29;20435;-59
2023/05/03 01:14:55;;;;;;;14.40;7.85;;;;;;;;;;4885261;29;20450;-57
2023/05/03 01:17:24;;;;;;;11.18;7.65;;;;;;;;;;4896844;29;20475;-57
2023/05/03 01:19:53;;;;;;;14.52;7.50;;;;;;;;;;4904465;29;20244;-59
2023/05/03 01:22:18;;;;;;;12.00;7.35;;;;;;;;;;4890214;29;20119;-58
2023/05/03 01:24:46;;;;;;;12.05;7.10;;;;;;;;;;4899554;29;20179;-57
2023/05/03 01:27:12;;;;;;;17.52;8.45;;;;;;;;;;4898694;29;20024;-58
2023/05/03 01:29:37;;;;;;;13.02;7.60;;;;;;;;;;4904141;29;20456;-57
2023/05/03 01:32:05;;;;;;;11.85;7.68;;;;;;;;;;4905855;29;20479;-57
2023/05/03 01:34:36;;;;;;;13.10;7.93;;;;;;;;;;4900249;29;20036;-56
2023/05/03 01:37:03;;;;;;;14.43;7.40;;;;;;;;;;4902376;29;20032;-55
2023/05/03 01:39:37;;;;;;;18.43;8.77;;;;;;;;;;4897096;29;20037;-57
2023/05/03 01:42:03;;;;;;;13.48;7.40;;;;;;;;;;4899046;29;20095;-56
2023/05/03 01:44:29;;;;;;;12.15;7.78;;;;;;;;;;4901737;29;20259;-57
2023/05/03 01:46:55;;;;;;;19.27;8.38;;;;;;;;;;4900325;29;20039;-53
2023/05/03 01:49:21;;;;;;;11.57;7.83;;;;;;;;;;4901964;29;20061;-58
2023/05/03 01:51:46;;;;;;;15.32;9.00;;;;;;;;;;4904561;29;20036;-56
2023/05/03 01:54:12;;;;;;;17.40;8.93;;;;;;;;;;4905415;29;20036;-57
2023/05/03 01:56:37;;;;;;;13.75;8.25;;;;;;;;;;4902535;29;20051;-58
2023/05/03 01:59:02;;;;;;;16.48;8.40;;;;;;;;;;4906322;29;20126;-55
2023/05/03 02:01:28;;;;;;;16.90;9.38;;;;;;;;;;4892559;29;20533;-54
2023/05/03 02:03:53;;;;;;;20.65;8.70;;;;;;;;;;4906078;29;20028;-58
2023/05/03 02:06:18;;;;;;;12.82;8.18;;;;;;;;;;4903638;29;20081;-54
2023/05/03 02:08:44;;;;;;;14.05;8.50;;;;;;;;;;4908729;29;20477;-57
2023/05/03 02:11:10;;;;;;;12.27;7.95;;;;;;;;;;4887192;29;20040;-58
2023/05/03 02:13:36;;;;;;;14.25;8.63;;;;;;;;;;4910769;29;20042;-58
2023/05/03 02:16:01;;;;;;;15.98;8.63;;;;;;;;;;4903257;29;20064;-58
2023/05/03 02:18:30;;;;;;;15.77;9.13;;;;;;;;;;4902805;29;20035;-58
2023/05/03 02:20:55;;;;;;;13.43;9.23;;;;;;;;;;4902479;29;20028;-55
2023/05/03 02:23:20;;;;;;;18.17;9.38;;;;;;;;;;4906975;29;20036;-57
2023/05/03 02:25:46;;;;;;;14.30;8.75;;;;;;;;;;4904277;29;20681;-59
2023/05/03 02:28:11;;;;;;;14.43;9.10;;;;;;;;;;4903957;29;20087;-56
2023/05/03 02:30:36;;;;;;;18.58;9.55;;;;;;;;;;4907835;29;20717;-58
2023/05/03 02:33:02;;;;;;;16.38;8.88;;;;;;;;;;4902972;29;20038;-56
2023/05/03 02:35:28;;;;;;;13.77;9.35;;;;;;;;;;4902775;29;20112;-58
2023/05/03 02:37:53;;;;;;;17.08;9.40;;;;;;;;;;4902939;29;20028;-60
2023/05/03 02:40:19;;;;;;;16.33;9.70;;;;;;;;;;4902475;29;20386;-57
2023/05/03 02:42:46;;;;;;;17.88;9.57;;;;;;;;;;4884444;29;20072;-57
2023/05/03 02:45:14;;;;;;;19.52;9.20;;;;;;;;;;4884740;29;20044;-60
2023/05/03 02:47:39;;;;;;;16.40;10.07;;;;;;;;;;4905397;29;20087;-58
2023/05/03 02:50:05;;;;;;;18.48;10.15;;;;;;;;;;4905022;29;20099;-56
2023/05/03 02:52:34;;;;;;;21.65;10.65;;;;;;;;;;4908474;29;20028;-54
2023/05/03 02:55:00;;;;;;;16.85;10.20;;;;;;;;;;4906829;29;20035;-58
2023/05/03 02:57:26;;;;;;;14.30;9.05;;;;;;;;;;4901026;29;20115;-54
2023/05/03 02:59:52;;;;;;;17.45;9.88;;;;;;;;;;4899298;29;20043;-61
2023/05/03 03:02:17;;;;;;;17.70;10.60;;;;;;;;;;4905017;29;20403;-55
2023/05/03 03:04:42;;;;;;;16.38;10.55;;;;;;;;;;4887740;29;20048;-58
2023/05/03 03:07:08;;;;;;;16.92;10.75;;;;;;;;;;4903165;29;20036;-55
2023/05/03 03:09:34;;;;;;;15.95;10.25;;;;;;;;;;4888710;29;20127;-59
2023/05/03 03:12:04;;;;;;;19.63;10.68;;;;;;;;;;4903357;29;20051;-57
2023/05/03 03:14:30;;;;;;;17.45;10.23;;;;;;;;;;4883769;29;20040;-60
2023/05/03 03:16:56;;;;;;;15.85;9.60;;;;;;;;;;4893055;29;20032;-57
2023/05/03 03:19:22;;;;;;;15.07;9.88;;;;;;;;;;4903793;29;20789;-55
2023/05/03 03:21:47;;;;;;;15.15;9.43;;;;;;;;;;4905564;29;20119;-59
2023/05/03 03:24:14;;;;;;;15.13;9.27;;;;;;;;;;4889718;29;20032;-60
2023/05/03 03:26:40;;;;;;;17.95;9.82;;;;;;;;;;4903322;29;20100;-58
2023/05/03 03:29:05;;;;;;;15.05;8.82;;;;;;;;;;4884674;29;20147;-60
2023/05/03 03:31:32;;;;;;;19.15;9.75;;;;;;;;;;4901504;29;20043;-58
2023/05/03 03:33:57;;;;;;;20.75;10.57;;;;;;;;;;4905989;29;20052;-59
2023/05/03 03:36:27;;;;;;;17.40;10.02;;;;;;;;;;4902224;29;20068;-57
2023/05/03 03:38:52;;;;;;;22.10;9.65;;;;;;;;;;4890472;29;20115;-58
2023/05/03 03:41:18;;;;;;;19.05;10.63;;;;;;;;;;4903511;29;20035;-59
2023/05/03 03:43:44;;;;;;;15.60;10.18;;;;;;;;;;4901463;29;20539;-57
2023/05/03 03:46:15;;;;;;;17.23;9.95;;;;;;;;;;4901539;29;20491;-58
2023/05/03 03:48:41;;;;;;;16.20;9.75;;;;;;;;;;4892937;29;20040;-56
2023/05/03 03:51:06;;;;;;;40.42;21.98;;;;;;;;;;4884262;29;20043;-58
2023/05/03 03:53:38;;;;;;;27.92;15.82;;;;;;;;;;4899328;29;20058;-59
2023/05/03 03:56:03;;;;;;;21.17;11.48;;;;;;;;;;4893304;29;20031;-58
2023/05/03 03:58:29;;;;;;;22.40;13.20;;;;;;;;;;4900278;29;20433;-59
2023/05/03 04:00:55;;;;;;;31.60;14.93;;;;;;;;;;4889692;29;20024;-58
2023/05/03 04:03:22;;;;;;;;;;;;;;;;;;4871727;29;20115;-58
2023/05/03 04:05:49;;;;;;;26.48;12.80;;;;;;;;;;4901360;29;20005;-57
2023/05/03 04:08:14;;;;;;;27.08;14.77;;;;;;;;;;4905154;29;20032;-55
2023/05/03 04:10:40;;;;;;;25.55;12.40;;;;;;;;;;4900551;29;20038;-57
2023/05/03 04:13:06;;;;;;;17.92;10.90;;;;;;;;;;4899823;29;20073;-59
2023/05/03 04:15:32;;;;;;;23.88;13.00;;;;;;;;;;4901540;29;20115;-61
2023/05/03 04:18:00;;;;;;;25.17;13.57;;;;;;;;;;4900341;29;20036;-58
2023/05/03 04:20:26;;;;;;;19.58;12.48;;;;;;;;;;4889406;29;20021;-54
2023/05/03 04:22:52;;;;;;;23.42;12.85;;;;;;;;;;4900543;29;20035;-56
2023/05/03 04:25:20;;;;;;;22.48;12.50;;;;;;;;;;4887127;29;20035;-58
2023/05/03 04:27:55;;;;;;;19.17;11.70;;;;;;;;;;4885150;29;20050;-56
2023/05/03 04:30:21;;;;;;;24.65;12.75;;;;;;;;;;4903180;29;20040;-56
2023/05/03 04:32:53;;;;;;;18.30;11.90;;;;;;;;;;4898470;29;20080;-58
2023/05/03 04:35:18;;;;;;;18.65;11.60;;;;;;;;;;4902615;29;20547;-57
2023/05/03 04:37:46;;;;;;;19.60;12.30;;;;;;;;;;4893014;29;20466;-58
2023/05/03 04:40:16;;;;;;;19.92;11.88;;;;;;;;;;4888926;29;20033;-58
2023/05/03 04:42:47;;;;;;;20.45;11.32;;;;;;;;;;4885852;29;20552;-60
2023/05/03 04:45:13;;;;;;;22.08;12.25;;;;;;;;;;4904066;29;20111;-59
2023/05/03 04:47:39;;;;;;;20.70;10.75;;;;;;;;;;4900539;29;20080;-57
2023/05/03 04:50:06;;;;;;;18.88;11.35;;;;;;;;;;4899186;29;20056;-57
2023/05/03 04:52:32;;;;;;;23.25;13.07;;;;;;;;;;4902436;29;20709;-55
2023/05/03 04:54:57;;;;;;;22.60;11.77;;;;;;;;;;4900161;29;20343;-58
2023/05/03 04:57:22;;;;;;;20.75;12.13;;;;;;;;;;4900471;29;20459;-56
2023/05/03 04:59:49;;;;;;;20.65;12.07;;;;;;;;;;4900577;29;20914;-58
2023/05/03 05:02:15;;;;;;;41.78;23.95;;;;;;;;;;4899855;29;20063;-60
2023/05/03 05:04:40;;;;;;;25.50;13.85;;;;;;;;;;4900096;29;20032;-57
2023/05/03 05:07:07;;;;;;;24.10;12.88;;;;;;;;;;4872817;29;20028;-56
2023/05/03 05:09:32;;;;;;;21.65;12.73;;;;;;;;;;4899973;29;20035;-59
2023/05/03 05:12:00;;;;;;;23.42;12.48;;;;;;;;;;4897625;29;20123;-58
2023/05/03 05:14:32;;;;;;;21.33;11.73;;;;;;;;;;4902172;29;20039;-58
2023/05/03 05:16:58;;;;;;;21.60;11.82;;;;;;;;;;4902515;29;20454;-58
2023/05/03 05:19:24;;;;;;;24.38;12.23;;;;;;;;;;4889756;29;20028;-59
2023/05/03 05:21:50;;;;;;;20.70;12.27;;;;;;;;;;4871402;29;20493;-60
2023/05/03 05:24:15;;;;;;;19.65;11.68;;;;;;;;;;4902204;29;20128;-59
2023/05/03 05:26:42;;;;;;;20.48;12.50;;;;;;;;;;4900015;29;20040;-56
2023/05/03 05:29:09;;;;;;;19.35;12.00;;;;;;;;;;4898475;29;20040;-59
2023/05/03 05:31:35;;;;;;;18.13;11.50;;;;;;;;;;4897459;29;20042;-58
2023/05/03 05:34:02;;;;;;;19.20;12.35;;;;;;;;;;4900175;29;20194;-57
2023/05/03 05:36:29;;;;;;;22.42;13.15;;;;;;;;;;4899880;29;20048;-57
2023/05/03 05:38:55;;;;;;;27.55;14.43;;;;;;;;;;4886024;29;20048;-53
2023/05/03 05:41:20;;;;;;;21.15;12.13;;;;;;;;;;4899350;29;20172;-55
2023/05/03 05:43:46;;;;;;;19.13;12.45;;;;;;;;;;4902184;29;20075;-58
2023/05/03 05:46:11;;;;;;;22.30;11.70;;;;;;;;;;4891496;29;20028;-55
2023/05/03 05:48:37;;;;;;;20.35;11.65;;;;;;;;;;4903607;29;20697;-57
2023/05/03 05:51:03;;;;;;;19.23;11.55;;;;;;;;;;4902406;29;20131;-57
2023/05/03 05:53:28;;;;;;;17.35;10.85;;;;;;;;;;4886494;29;20346;-56
2023/05/03 05:55:58;;;;;;;21.08;11.68;;;;;;;;;;4901680;29;20039;-59
2023/05/03 05:58:25;;;;;;;20.65;12.20;;;;;;;;;;4902989;29;20392;-51
2023/05/03 06:00:56;;;;;;;19.38;10.93;;;;;;;;;;4901131;29;20903;-55
2023/05/03 06:03:22;;;;;;;22.05;11.55;;;;;;;;;;4903281;29;20375;-55
2023/05/03 06:05:49;;;;;;;17.15;10.57;;;;;;;;;;4885684;29;20036;-58
2023/05/03 06:08:14;;;;;;;21.45;11.48;;;;;;;;;;4901848;29;20071;-55
2023/05/03 06:10:40;;;;;;;17.58;10.48;;;;;;;;;;4904083;29;20044;-53
2023/05/03 06:13:05;;;;;;;18.88;10.95;;;;;;;;;;4880206;29;20174;-57
2023/05/03 06:15:31;;;;;;;17.35;11.73;;;;;;;;;;4902025;29;20035;-57
2023/05/03 06:17:57;;;;;;;23.27;11.40;;;;;;;;;;4906738;29;20040;-57
2023/05/03 06:20:23;;;;;;;19.60;11.25;;;;;;;;;;4901715;29;20046;-56
2023/05/03 06:22:49;;;;;;;17.90;10.20;;;;;;;;;;4897781;29;20036;-61
2023/05/03 06:25:15;;;;;;;15.40;10.32;;;;;;;;;;4892746;29;20342;-59
2023/05/03 06:27:42;;;;;;;;;;;;;;;;;;4884969;29;20128;-58
2023/05/03 06:30:07;;;;;;;17.25;10.20;;;;;;;;;;4902139;29;19950;-55
2023/05/03 06:32:33;;;;;;;16.50;9.85;;;;;;;;;;4902205;29;20024;-57
2023/05/03 06:34:59;;;;;;;15.77;10.43;;;;;;;;;;4902661;29;20071;-56
2023/05/03 06:37:25;;;;;;;20.75;10.38;;;;;;;;;;4902940;29;20056;-56
2023/05/03 06:39:50;;;;;;;16.77;10.45;;;;;;;;;;4905049;29;20048;-54
2023/05/03 06:42:17;;;;;;;;;;;;;;;;;;4904845;29;20574;-56
2023/05/03 06:44:43;;;;;;;15.85;9.90;;;;;;;;;;4903221;29;20421;-62
2023/05/03 06:47:08;;;;;;;18.40;10.88;;;;;;;;;;4891957;29;20071;-56
2023/05/03 06:49:34;;;;;;;17.52;9.55;;;;;;;;;;4903861;29;20032;-56
2023/05/03 06:51:59;;;;;;;18.13;11.18;;;;;;;;;;4904985;29;20471;-58
2023/05/03 06:54:24;;;;;;;20.20;11.48;;;;;;;;;;4903651;29;20037;-55
2023/05/03 06:56:50;;;;;;;18.92;10.25;;;;;;;;;;4905383;29;20393;-58
2023/05/03 06:59:15;;;;;;;18.08;10.82;;;;;;;;;;4905115;29;20111;-58
2023/05/03 07:01:41;;;;;;;17.58;10.10;;;;;;;;;;4903401;29;20145;-55
2023/05/03 07:04:06;;;;;;;16.75;10.43;;;;;;;;;;4906457;29;20118;-58
2023/05/03 07:06:31;;;;;;;14.27;9.82;;;;;;;;;;4902607;29;20051;-58
2023/05/03 07:08:56;;;;;;;16.75;10.13;;;;;;;;;;4903357;29;20642;-58
2023/05/03 07:11:22;;;;;;;16.95;10.07;;;;;;;;;;4904163;29;20047;-58
2023/05/03 07:13:51;;;;;;;15.80;9.45;;;;;;;;;;4898514;29;20043;-58
2023/05/03 07:16:17;;;;;;;14.77;9.07;;;;;;;;;;4899998;29;20024;-58
2023/05/03 07:18:42;;;;;;;15.60;9.68;;;;;;;;;;4901463;29;20047;-60
2023/05/03 07:21:08;;;;;;;14.60;9.05;;;;;;;;;;4903664;29;20612;-59
2023/05/03 07:23:33;;;;;;;16.35;9.15;;;;;;;;;;4901560;29;20467;-58
2023/05/03 07:25:58;;;;;;;14.93;9.65;;;;;;;;;;4902354;29;20076;-57
2023/05/03 07:28:24;;;;;;;16.98;9.48;;;;;;;;;;4902436;29;20123;-58
2023/05/03 07:30:49;;;;;;;15.35;9.32;;;;;;;;;;4902087;29;20111;-58
2023/05/03 07:33:15;;;;;;;12.18;9.13;;;;;;;;;;4903208;29;20036;-56
2023/05/03 07:35:40;;;;;;;14.85;8.50;;;;;;;;;;4901599;29;20024;-57
2023/05/03 07:38:05;;;;;;;12.93;8.50;;;;;;;;;;4899731;29;20383;-58
2023/05/03 07:40:32;;;;;;;16.35;8.90;;;;;;;;;;4901823;29;20103;-57
2023/05/03 07:43:00;;;;;;;14.50;8.68;;;;;;;;;;4900360;29;20743;-59
2023/05/03 07:45:26;;;;;;;13.90;7.90;;;;;;;;;;4900752;29;20034;-58
2023/05/03 07:47:51;;;;;;;15.50;8.52;;;;;;;;;;4901564;29;20032;-56
2023/05/03 07:50:17;;;;;;;13.85;8.57;;;;;;;;;;4903330;29;20489;-58
2023/05/03 07:52:42;;;;;;;15.80;8.02;;;;;;;;;;4903291;29;20028;-60
2023/05/03 07:55:08;;;;;;;13.13;7.78;;;;;;;;;;4901833;29;20095;-60
2023/05/03 07:57:33;;;;;;;15.52;8.55;;;;;;;;;;4900754;29;20486;-57
2023/05/03 07:59:59;;;;;;;14.40;7.88;;;;;;;;;;4899845;29;20608;-59
2023/05/03 08:02:24;;;;;;;14.70;7.88;;;;;;;;;;4901497;29;20090;-57
2023/05/03 08:04:50;;;;;;;13.15;8.32;;;;;;;;;;4901298;29;20122;-54
2023/05/03 08:07:16;;;;;;;13.75;7.72;;;;;;;;;;4896752;29;20043;-59
2023/05/03 08:09:41;;;;;;;15.98;8.00;;;;;;;;;;4885897;29;20036;-58
2023/05/03 08:12:07;;;;;;;15.05;8.20;;;;;;;;;;4898616;29;20051;-61
2023/05/03 08:14:32;;;;;;;14.57;7.90;;;;;;;;;;4902714;29;20442;-58
2023/05/03 08:16:58;;;;;;;13.32;7.90;;;;;;;;;;4902956;29;20104;-57
2023/05/03 08:19:24;;;;;;;13.45;7.95;;;;;;;;;;4881300;29;20100;-56
2023/05/03 08:21:51;;;;;;;15.10;8.20;;;;;;;;;;4902268;29;20751;-60
2023/05/03 08:24:16;;;;;;;14.38;7.57;;;;;;;;;;4899417;29;20032;-59
2023/05/03 08:26:45;;;;;;;13.70;7.72;;;;;;;;;;4885286;29;20046;-58
2023/05/03 08:29:10;;;;;;;14.00;7.85;;;;;;;;;;4900524;29;20042;-60
2023/05/03 08:31:36;;;;;;;12.23;7.22;;;;;;;;;;4900388;29;20406;-57
2023/05/03 08:34:02;;;;;;;13.57;7.82;;;;;;;;;;4899757;29;20039;-59
2023/05/03 08:36:28;;;;;;;13.88;7.82;;;;;;;;;;4901384;29;20036;-59
2023/05/03 08:38:53;;;;;;;13.05;7.60;;;;;;;;;;4901267;29;20032;-59
2023/05/03 08:41:26;;;;;;;9.68;6.57;;;;;;;;;;4903416;29;20054;-61
2023/05/03 08:43:53;;;;;;;14.55;7.80;;;;;;;;;;4900335;29;20092;-60
2023/05/03 08:46:18;;;;;;;15.82;8.57;;;;;;;;;;4899191;29;20519;-58
2023/05/03 08:48:46;;;;;;;12.20;7.47;;;;;;;;;;4900274;29;20047;-58
2023/05/03 08:51:12;;;;;;;13.00;7.47;;;;;;;;;;4900726;29;20471;-60
2023/05/03 08:53:37;;;;;;;12.80;7.05;;;;;;;;;;4900203;29;20036;-58
2023/05/03 08:56:07;;;;;;;12.57;8.45;;;;;;;;;;4901810;29;20029;-56
2023/05/03 08:58:36;;;;;;;10.50;6.97;;;;;;;;;;4901513;29;20043;-58
2023/05/03 09:01:05;;;;;;;10.43;7.50;;;;;;;;;;4902128;29;20117;-55
2023/05/03 09:03:31;;;;;;;16.00;7.78;;;;;;;;;;4900511;29;20039;-56
2023/05/03 09:06:00;;;;;;;11.43;7.68;;;;;;;;;;4899802;29;20032;-59
2023/05/03 09:08:26;;;;;;;12.15;7.57;;;;;;;;;;4900568;29;20032;-58
2023/05/03 09:10:51;;;;;;;9.82;7.75;;;;;;;;;;4900345;29;20028;-57
2023/05/03 09:13:17;;;;;;;13.80;7.72;;;;;;;;;;4897128;29;20107;-59
2023/05/03 09:15:45;;;;;;;11.60;7.88;;;;;;;;;;4898349;29;20031;-58
2023/05/03 09:18:20;;;;;;;14.10;7.65;;;;;;;;;;4899879;29;20128;-58
2023/05/03 09:20:52;;;;;;;11.18;7.18;;;;;;;;;;4898822;29;20032;-57
2023/05/03 09:23:24;;;;;;;13.38;6.45;;;;;;;;;;4902196;29;20524;-58
2023/05/03 09:25:50;;;;;;;11.20;7.03;;;;;;;;;;4898627;29;20048;-57
2023/05/03 09:28:16;;;;;;;10.85;7.38;;;;;;;;;;4899534;29;20039;-59
2023/05/03 09:30:42;;;;;;;11.80;7.63;;;;;;;;;;4900780;29;20067;-57
2023/05/03 09:33:07;;;;;;;11.68;7.13;;;;;;;;;;4898223;29;20305;-59
2023/05/03 09:35:33;;;;;;;12.32;7.28;;;;;;;;;;4901718;29;20067;-58
2023/05/03 09:37:59;;;;;;;9.40;6.47;;;;;;;;;;4902356;29;20095;-58
2023/05/03 09:40:25;;;;;;;13.05;6.85;;;;;;;;;;4901657;29;20115;-58
2023/05/03 09:43:08;;;;;;;11.13;6.72;;;;;;;;;;4900571;29;20548;-56
2023/05/03 09:45:34;;;;;;;11.93;6.40;;;;;;;;;;4900359;29;20036;-57
2023/05/03 09:48:03;;;;;;;10.83;6.23;;;;;;;;;;4902143;29;20051;-58
2023/05/03 09:50:32;;;;;;;10.65;6.25;;;;;;;;;;4900394;29;20070;-59
2023/05/03 09:53:02;;;;;;;9.68;6.03;;;;;;;;;;4900169;29;20043;-60
2023/05/03 09:55:30;;;;;;;10.30;6.15;;;;;;;;;;4899886;29;20150;-57
2023/05/03 09:57:56;;;;;;;10.52;6.35;;;;;;;;;;4899514;29;20091;-57
2023/05/03 10:00:24;;;;;;;14.77;6.95;;;;;;;;;;4900460;29;20485;-57
2023/05/03 10:02:50;;;;;;;11.52;6.70;;;;;;;;;;4897862;29;20696;-60
2023/05/03 10:05:16;;;;;;;10.60;7.00;;;;;;;;;;4897138;29;20237;-59
2023/05/03 10:07:42;;;;;;;11.38;6.90;;;;;;;;;;4902234;29;20031;-58
2023/05/03 10:10:08;;;;;;;9.30;6.32;;;;;;;;;;4899758;29;20037;-58
2023/05/03 10:12:35;;;;;;;11.10;6.18;;;;;;;;;;4903528;29;20262;-59
2023/05/03 10:15:03;;;;;;;10.27;6.10;;;;;;;;;;4901872;29;20069;-59
2023/05/03 10:17:32;;;;;;;10.05;6.20;;;;;;;;;;4903825;29;20419;-58
2023/05/03 10:20:17;;;;;;;10.45;6.07;;;;;;;;;;4902037;29;20032;-58
2023/05/03 10:23:02;;;;;;;8.68;6.25;;;;;;;;;;4902914;29;20067;-59
2023/05/03 10:25:27;;;;;;;8.73;6.00;;;;;;;;;;4903783;29;20032;-58
2023/05/03 10:27:53;;;;;;;9.82;6.10;;;;;;;;;;4887818;29;20039;-58
2023/05/03 10:30:25;;;;;;;9.15;5.70;;;;;;;;;;4901612;29;20495;-56
2023/05/03 10:32:50;;;;;;;10.15;5.90;;;;;;;;;;4905597;29;20078;-58
2023/05/03 10:35:16;;;;;;;9.20;6.05;;;;;;;;;;4903404;29;20111;-58
2023/05/03 10:37:42;;;;;;;8.25;5.22;;;;;;;;;;4903957;29;20044;-58
2023/05/03 10:40:12;;;;;;;9.23;5.72;;;;;;;;;;4904550;29;20119;-56
2023/05/03 10:42:38;;;;;;;9.40;6.15;;;;;;;;;;4900341;29;20447;-57
2023/05/03 10:45:07;;;;;;;13.77;6.28;;;;;;;;;;4901937;29;20097;-57
2023/05/03 10:47:33;;;;;;;9.02;5.07;;;;;;;;;;4902444;29;20139;-53
2023/05/03 10:50:10;;;;;;;8.68;4.80;;;;;;;;;;4903207;29;20046;-59
2023/05/03 10:52:39;;;;;;;8.55;4.72;;;;;;;;;;4905428;29;20039;-56
2023/05/03 10:55:11;;;;;;;12.07;4.97;;;;;;;;;;4903184;29;20039;-57
2023/05/03 10:57:38;;;;;;;9.20;4.40;;;;;;;;;;4903876;29;20036;-55
2023/05/03 11:00:09;;;;;;;6.97;4.43;;;;;;;;;;4885576;29;20056;-58
2023/05/03 11:02:36;;;;;;;7.80;4.78;;;;;;;;;;4900568;29;21026;-59
2023/05/03 11:05:04;;;;;;;7.70;4.95;;;;;;;;;;4902565;29;20040;-58
2023/05/03 11:07:30;;;;;;;7.47;4.10;;;;;;;;;;4900507;29;20067;-57
2023/05/03 11:09:56;;;;;;;7.65;4.72;;;;;;;;;;4900622;29;20036;-58
2023/05/03 11:12:21;;;;;;;8.77;4.95;;;;;;;;;;4900925;29;20089;-58
2023/05/03 11:14:48;;;;;;;6.70;4.57;;;;;;;;;;4899691;29;20471;-57
2023/05/03 11:17:14;;;;;;;8.00;4.43;;;;;;;;;;4902070;29;20028;-60
2023/05/03 11:19:40;;;;;;;7.88;4.32;;;;;;;;;;4900781;29;20055;-57
2023/05/03 11:22:06;;;;;;;6.72;4.30;;;;;;;;;;4902568;29;20043;-57
2023/05/03 11:24:31;;;;;;;7.87;4.30;;;;;;;;;;4899228;29;20040;-57
2023/05/03 11:26:56;;;;;;;6.07;4.10;;;;;;;;;;4900213;29;20407;-58
2023/05/03 11:29:23;;;;;;;7.70;4.17;;;;;;;;;;4901188;29;20641;-58
2023/05/03 11:31:49;;;;;;;7.43;4.25;;;;;;;;;;4902339;29;20036;-57
2023/05/03 11:34:14;;;;;;;6.27;3.80;;;;;;;;;;4870057;29;20039;-58
2023/05/03 11:36:40;;;;;;;5.03;3.30;;;;;;;;;;4887330;29;20043;-58
2023/05/03 11:39:06;;;;;;;6.78;3.67;;;;;;;;;;4904044;29;20053;-58
2023/05/03 11:41:32;;;;;;;5.80;3.92;;;;;;;;;;4901321;29;20051;-58
2023/05/03 11:43:57;;;;;;;6.13;4.13;;;;;;;;;;4902428;29;20033;-60
2023/05/03 11:46:24;;;;;;;6.67;4.27;;;;;;;;;;4904292;29;20020;-58
2023/05/03 11:48:49;;;;;;;5.90;3.90;;;;;;;;;;4887002;29;20052;-58
2023/05/03 11:51:20;;;;;;;6.93;4.40;;;;;;;;;;4894734;29;20032;-58
2023/05/03 11:53:47;;;;;;;5.90;4.20;;;;;;;;;;4895677;29;20028;-58
2023/05/03 11:56:14;;;;;;;6.45;3.92;;;;;;;;;;4894107;29;20562;-57
2023/05/03 11:58:52;;;;;;;5.78;3.72;;;;;;;;;;4901992;29;20036;-60
2023/05/03 12:01:20;;;;;;;5.82;3.50;;;;;;;;;;4903308;29;20036;-58
2023/05/03 12:03:48;;;;;;;7.05;3.33;;;;;;;;;;4903329;29;20033;-57
2023/05/03 12:06:15;;;;;;;8.25;4.35;;;;;;;;;;4903462;29;20035;-57
2023/05/03 12:08:40;;;;;;;6.63;3.33;;;;;;;;;;4903180;29;20655;-59
2023/05/03 12:11:05;;;;;;;6.67;3.57;;;;;;;;;;4901559;29;20040;-59
2023/05/03 12:13:35;;;;;;;7.70;3.80;;;;;;;;;;4904168;29;20040;-57
2023/05/03 12:16:01;;;;;;;6.22;3.83;;;;;;;;;;4901070;29;20560;-59
2023/05/03 12:18:27;;;;;;;7.68;4.53;;;;;;;;;;4900092;29;20036;-59
2023/05/03 12:20:56;;;;;;;7.93;4.35;;;;;;;;;;4904664;29;20051;-59
2023/05/03 12:23:22;;;;;;;6.95;3.83;;;;;;;;;;4903830;29;20093;-60
2023/05/03 12:25:47;;;;;;;7.63;3.85;;;;;;;;;;4897215;29;20091;-56
2023/05/03 12:28:13;;;;;;;5.17;3.40;;;;;;;;;;4902418;29;20407;-59
2023/05/03 12:30:38;;;;;;;6.32;4.03;;;;;;;;;;4901081;29;20037;-58
2023/05/03 12:33:04;;;;;;;6.73;3.57;;;;;;;;;;4903209;29;20115;-59
2023/05/03 12:35:29;;;;;;;7.57;3.40;;;;;;;;;;4903199;29;20046;-59
2023/05/03 12:37:54;;;;;;;5.95;3.80;;;;;;;;;;4903440;29;20043;-57
2023/05/03 12:40:23;;;;;;;9.13;3.60;;;;;;;;;;4903860;29;20474;-59
2023/05/03 12:42:48;;;;;;;5.20;3.30;;;;;;;;;;4904878;29;20032;-57
2023/05/03 12:45:13;;;;;;;5.90;3.67;;;;;;;;;;4903847;29;20083;-59
2023/05/03 12:47:39;;;;;;;5.27;3.47;;;;;;;;;;4904586;29;20265;-58
2023/05/03 12:50:05;;;;;;;5.45;3.30;;;;;;;;;;4901644;29;20102;-58
2023/05/03 12:52:30;;;;;;;6.78;3.60;;;;;;;;;;4903072;29;20041;-58
2023/05/03 12:54:56;;;;;;;7.13;4.03;;;;;;;;;;4900511;29;20036;-59
2023/05/03 12:57:21;;;;;;;6.07;3.47;;;;;;;;;;4899438;29;20283;-59
2023/05/03 12:59:51;;;;;;;6.37;3.30;;;;;;;;;;4900990;29;20043;-58
2023/05/03 13:02:17;;;;;;;4.85;2.97;;;;;;;;;;4898112;29;20111;-59
2023/05/03 13:04:42;;;;;;;7.93;3.60;;;;;;;;;;4901808;29;20148;-57
2023/05/03 13:07:09;;;;;;;6.80;3.40;;;;;;;;;;4902027;29;20144;-58
2023/05/03 13:09:34;;;;;;;5.28;3.60;;;;;;;;;;4903674;29;20283;-57
2023/05/03 13:12:01;;;;;;;6.00;3.20;;;;;;;;;;4904330;29;20072;-57
2023/05/03 13:14:27;;;;;;;6.60;3.10;;;;;;;;;;4902397;29;20460;-57
2023/05/03 13:16:52;;;;;;;8.40;3.67;;;;;;;;;;4902962;29;20533;-58
2023/05/03 13:19:17;;;;;;;;;;;;;;;;;;4902457;29;20028;-61
2023/05/03 13:21:45;;;;;;;4.37;2.80;;;;;;;;;;4903011;29;19954;-60
2023/05/03 13:24:10;;;;;;;8.18;3.92;;;;;;;;;;4903600;29;20044;-58
2023/05/03 13:26:35;;;;;;;;;;;;;;;;;;4903060;29;20046;-58
2023/05/03 13:29:01;;;;;;;;;;;;;;;;;;4902226;29;19919;-58
2023/05/03 13:31:27;;;;;;;7.87;3.70;;;;;;;;;;4901157;29;20341;-57
2023/05/03 13:33:53;;;;;;;6.93;3.30;;;;;;;;;;4902293;29;20647;-57
2023/05/03 13:36:18;;;;;;;;;;;;;;;;;;4902002;29;20039;-57
2023/05/03 13:38:43;;;;;;;7.53;3.37;;;;;;;;;;4900195;29;19997;-60
2023/05/03 13:41:09;;;;;;;;;;;;;;;;;;4900758;29;20331;-56
2023/05/03 13:43:34;;;;;;;;;;;;;;;;;;4900358;29;20396;-57
2023/05/03 13:46:00;;;;;;;11.07;3.47;;;;;;;;;;4901045;29;20373;-56
2023/05/03 13:48:26;;;;;;;6.05;3.58;;;;;;;;;;4899262;29;20055;-58
2023/05/03 13:50:51;;;;;;;9.40;3.73;;;;;;;;;;4899755;29;20191;-58
2023/05/03 13:53:16;;;;;;;;;;;;;;;;;;4901799;29;20088;-60
2023/05/03 13:55:42;;;;;;;6.10;3.30;;;;;;;;;;4899824;29;19922;-60
2023/05/03 13:58:07;;;;;;;;;;;;;;;;;;4901119;29;20042;-59
2023/05/03 14:00:32;;;;;;;5.70;3.45;;;;;;;;;;4899163;29;19919;-58
2023/05/03 14:02:58;;;;;;;7.55;3.30;;;;;;;;;;4883276;29;20046;-57
2023/05/03 14:05:23;;;;;;;7.90;3.25;;;;;;;;;;4901604;29;20676;-57
2023/05/03 14:07:48;;;;;;;6.25;3.25;;;;;;;;;;4892755;29;20110;-59
2023/05/03 14:10:14;;;;;;;7.78;3.47;;;;;;;;;;4892823;29;20711;-57
2023/05/03 14:12:39;;;;;;;5.65;3.20;;;;;;;;;;4894866;29;20040;-58
2023/05/03 14:15:05;;;;;;;5.35;2.72;;;;;;;;;;4897049;29;20406;-60
2023/05/03 14:17:31;;;;;;;8.52;3.63;;;;;;;;;;4901776;29;20044;-57
2023/05/03 14:19:56;;;;;;;;;;;;;;;;;;4894763;29;20938;-59
2023/05/03 14:22:22;;;;;;;8.30;4.20;;;;;;;;;;4896939;29;19962;-61
2023/05/03 14:24:47;;;;;;;;;;;;;;;;;;4901246;29;20833;-58
2023/05/03 14:27:13;;;;;;;8.73;3.70;;;;;;;;;;4894378;29;19914;-57
2023/05/03 14:29:38;;;;;;;;;;;;;;;;;;4899146;29;20080;-56
2023/05/03 14:32:04;;;;;;;7.93;3.03;;;;;;;;;;4892110;29;19923;-57